Huvudsida
METAR-TAF:

METAR-TAF

Flygplatser :

Antonio B. Won Pat International Airport

Hagåtña, Guam, USA

latitud: 13-29N, longitud: 144-48E, höjd: 91 m

Aktuellt väderrapport

Denna rapport gjordes för 47 minuter sedan, klockan 06:54 UTC
Stilla vind
Temperatur 29°C
Fuktighet 84%
Tryck 1010 hPa
Sikt: 16.1 km
Spridda moln på en höjd av 4100 ft
Brutna moln på en höjd av 7000 ft

METAR: PGUM 220654Z 00000KT 10SM SCT041 BKN070 29/26 A2982 RMK AO2 SLP090 T02940256 $

Tid: 17:41 (07:41 UTC)

Väderprognos

Denna rapport gjordes för 8 minuter sedan, klockan 07:33 UTC
Prognos gäller från 22 kl. 08 UTC till 23 kl. 12 UTC
Vind 4 kt varierande vindriktning
Sikt: 10 km
Få moln på en höjd av 1800 ft
Spridda moln på en höjd av 3500 ft
Brutna moln på en höjd av 15000 ft
skurar i närheten

TAF: PGUM 220733Z 2208/2312 VRB04KT P6SM VCSH FEW018 SCT035 BKN150

Aktuella väderrapporter och prognoser från 4000 flygplatser (METAR- och TAF-rapporter).

De tillgängliga stationerna syns som gula och röda prickar på kartan.

För musen över prickarna för att se namnen på stationerna.

Klicka sedan för att få väderrapporter och prognoser.

För att ändra kartan: Klicka på de gröna knapparna med ett svart kors på för att zooma in; den gröna knappen med ett streck på för att zooma ut; eller på de gröna pilarna för angränsande kartor.


METAR-TAF: